KMBY

Details ICAO KMBY
Name OMAR N BRADLEY
Region United States
Timezone America/Chicago (UTC-6.0)
Plans Departing 2
Arriving 3
Stats Elevation 867 ft / 264 m (AMSL)
Location 39.463954° -92.427124°
Runways 2
Magnetic Variation 0.061° E
Sunrise 2017-12-12 13:22:16 UTC / 2017-12-12 07:22:16 Local
Sunset 2017-12-12 22:47:43 UTC / 2017-12-12 16:47:43 Local
Advertisement - Login to hide

Runways

ID Width Length Bearing (true) Bearing (mag) Surface Threshold Offset Overrun Length
05 60 ft / 18 m 3,348 ft / 1,021 m 52.95° 52.89° Asphalt 0 ft / 0 m 0 ft / 0 m
13 100 ft / 30 m 4,267 ft / 1,301 m 129.84° 129.78° Asphalt 0 ft / 0 m 60 ft / 18 m
23 60 ft / 18 m 3,348 ft / 1,021 m 232.96° 232.90° Asphalt 0 ft / 0 m 0 ft / 0 m
31 100 ft / 30 m 4,267 ft / 1,301 m 309.84° 309.78° Asphalt 0 ft / 0 m 411 ft / 125 m

Map

Weather


0- 5 10 15 20 25 30 35+ Temperature / ° C

Clouds and Precipitation
Forecast for 2017-12-12 18:00 UTC. Updated 40 minutes ago

Ground ~20,000 ft ~40,000 ft Winds

METAR

KMBY 121815Z AUTO 27009G14KT 232V302 10SM CLR 00/M16 A3026 RMK AO2

TAF

Not found

Frequencies

Recorded 120.02 MHz AWOS 3
Unicom 122.70 MHz CTAF/UNICOM
Warning: Do not use this data for real-world aviation or navigation. No guarantee of current accuracy is given.